Anson, Texas
Current Conditions -  °F | °C
As of 11:58 AM on Thursday 30 Oct 2014 (Local Time) from KDYS Reporting Station
Clear Clear  
Wind Chill: 24°   Ceiling: Unl
Heat Index: 24°   Visibility: 10mi
Dew Point: 16°   Wind: 12mph
Humidity: 60%   Direction: 190°S
Pressure: 30.13"   Gusts: NA
Location:  32.76°N, 99.9°W
Report Text: KDYS 301658Z AUTO 19010KT 10SM CLR 24/16 A3013 RMK AO2 SLP170 T02430162 $
Loading
Personal Weather Stations






























Interactive Weather Map
Tropical Storm Tracking
New forecast layout! Learn more

10-Day Weather Forecast

Advertisements
Track Severe Weather on mobile